createdAt,value
2023-03-05T00:01:59.380Z,15.00
2023-03-05T00:04:27.856Z,16.40
2023-03-05T00:06:57.977Z,16.00
2023-03-05T00:09:27.199Z,14.90
2023-03-05T00:11:58.271Z,15.80
2023-03-05T00:14:26.698Z,15.80
2023-03-05T00:16:55.112Z,19.10
2023-03-05T00:19:25.676Z,13.90
2023-03-05T00:21:54.596Z,14.70
2023-03-05T00:24:29.012Z,16.40
2023-03-05T00:26:57.849Z,16.70
2023-03-05T00:29:29.586Z,15.60
2023-03-05T00:32:00.432Z,15.50
2023-03-05T00:34:29.950Z,15.70
2023-03-05T00:37:00.721Z,14.20
2023-03-05T00:39:29.336Z,14.30
2023-03-05T00:41:59.023Z,16.20
2023-03-05T00:44:27.747Z,15.50
2023-03-05T00:46:56.131Z,15.90
2023-03-05T00:49:25.012Z,15.70
2023-03-05T00:51:53.666Z,15.40
2023-03-05T00:54:22.818Z,15.30
2023-03-05T00:56:51.334Z,15.70
2023-03-05T00:59:19.826Z,16.20
2023-03-05T01:01:50.335Z,16.40
2023-03-05T01:04:20.174Z,15.60
2023-03-05T01:06:50.099Z,15.00
2023-03-05T01:09:19.368Z,16.10
2023-03-05T01:11:47.977Z,13.20
2023-03-05T01:14:16.364Z,15.90
2023-03-05T01:16:45.725Z,13.60
2023-03-05T01:19:14.931Z,12.20
2023-03-05T01:21:43.290Z,15.10
2023-03-05T01:24:13.451Z,14.10
2023-03-05T01:26:42.114Z,13.30
2023-03-05T01:29:10.779Z,12.70
2023-03-05T01:31:39.989Z,14.20
2023-03-05T01:34:08.981Z,12.50
2023-03-05T01:39:11.410Z,13.30
2023-03-05T01:41:39.820Z,13.40
2023-03-05T01:44:33.462Z,12.60
2023-03-05T01:47:02.910Z,12.20
2023-03-05T01:49:34.274Z,14.80
2023-03-05T01:52:10.855Z,15.20
2023-03-05T01:54:42.680Z,15.30
2023-03-05T01:57:18.047Z,15.00
2023-03-05T01:59:47.454Z,12.80
2023-03-05T02:02:16.137Z,14.40
2023-03-05T02:04:51.108Z,12.50
2023-03-05T02:07:19.597Z,12.40
2023-03-05T02:09:48.241Z,14.20
2023-03-05T02:12:20.662Z,14.50
2023-03-05T02:14:50.619Z,13.90
2023-03-05T02:17:19.063Z,12.90
2023-03-05T02:19:55.620Z,14.00
2023-03-05T02:22:24.971Z,12.50
2023-03-05T02:24:54.833Z,13.90
2023-03-05T02:27:27.402Z,13.80
2023-03-05T02:30:01.704Z,13.60
2023-03-05T02:32:32.665Z,13.30
2023-03-05T02:35:01.244Z,12.40
2023-03-05T02:37:30.821Z,12.20
2023-03-05T02:39:59.596Z,14.10
2023-03-05T02:42:33.858Z,13.10
2023-03-05T02:45:11.141Z,13.40
2023-03-05T02:47:39.917Z,11.70
2023-03-05T02:50:10.003Z,13.00
2023-03-05T02:52:39.266Z,12.20
2023-03-05T02:55:11.973Z,12.40
2023-03-05T02:57:41.467Z,12.20
2023-03-05T03:00:11.975Z,12.20
2023-03-05T03:02:41.986Z,10.80
2023-03-05T03:05:10.449Z,12.40
2023-03-05T03:07:38.876Z,12.10
2023-03-05T03:10:11.936Z,11.40
2023-03-05T03:12:42.104Z,11.80
2023-03-05T03:15:11.516Z,8.70
2023-03-05T03:17:44.858Z,12.50
2023-03-05T03:20:15.463Z,11.60
2023-03-05T03:22:44.508Z,10.10
2023-03-05T03:25:20.829Z,12.30
2023-03-05T03:27:51.562Z,11.40
2023-03-05T03:30:20.229Z,10.90
2023-03-05T03:32:48.838Z,10.20
2023-03-05T03:35:17.729Z,10.10
2023-03-05T03:37:47.874Z,11.70
2023-03-05T03:40:16.768Z,10.20
2023-03-05T03:42:45.279Z,9.80
2023-03-05T03:45:13.784Z,10.40
2023-03-05T03:47:43.279Z,11.20
2023-03-05T03:50:12.615Z,11.00
2023-03-05T03:52:41.207Z,10.00
2023-03-05T03:55:11.174Z,10.70
2023-03-05T03:57:40.109Z,10.40
2023-03-05T04:00:10.635Z,9.70
2023-03-05T04:02:42.223Z,9.50
2023-03-05T04:05:11.115Z,9.00
2023-03-05T04:07:39.565Z,9.40
2023-03-05T04:10:11.166Z,10.20
2023-03-05T04:12:39.758Z,9.60
2023-03-05T04:15:08.878Z,10.90
2023-03-05T04:17:37.677Z,10.00
2023-03-05T04:20:08.917Z,9.10
2023-03-05T04:22:43.401Z,10.40
2023-03-05T04:25:12.062Z,9.20
2023-03-05T04:27:40.578Z,10.40
2023-03-05T04:30:28.848Z,9.00
2023-03-05T04:33:01.381Z,10.40
2023-03-05T04:35:30.317Z,10.60
2023-03-05T04:37:58.718Z,9.40
2023-03-05T04:40:27.754Z,10.40
2023-03-05T04:42:56.133Z,9.20
2023-03-05T04:45:24.651Z,9.50
2023-03-05T04:47:53.871Z,8.90
2023-03-05T04:50:26.401Z,9.70
2023-03-05T04:52:54.990Z,10.40
2023-03-05T04:55:23.417Z,10.70
2023-03-05T04:57:51.812Z,9.90
2023-03-05T05:00:21.076Z,8.90
2023-03-05T05:02:50.483Z,11.20
2023-03-05T05:05:21.038Z,10.40
2023-03-05T05:07:49.613Z,9.10
2023-03-05T05:10:18.012Z,10.40
2023-03-05T05:12:46.443Z,9.50
2023-03-05T05:15:15.573Z,9.30
2023-03-05T05:17:44.096Z,9.40
2023-03-05T05:20:14.532Z,8.90
2023-03-05T05:22:44.324Z,10.10
2023-03-05T05:25:12.995Z,9.40
2023-03-05T05:27:43.727Z,9.80
2023-03-05T05:30:13.296Z,7.90
2023-03-05T05:32:41.839Z,11.10
2023-03-05T05:35:11.115Z,8.70
2023-03-05T05:37:39.693Z,9.90
2023-03-05T05:40:09.768Z,8.70
2023-03-05T05:42:38.509Z,9.90
2023-03-05T05:45:08.537Z,10.10
2023-03-05T05:47:36.972Z,9.00
2023-03-05T05:52:39.697Z,8.60
2023-03-05T05:55:08.890Z,8.70
2023-03-05T05:57:37.420Z,9.40
2023-03-05T06:00:10.100Z,9.40
2023-03-05T06:02:42.546Z,10.20
2023-03-05T06:05:12.749Z,7.90
2023-03-05T06:07:41.934Z,7.50
2023-03-05T06:10:11.588Z,8.70
2023-03-05T06:12:40.190Z,7.90
2023-03-05T06:15:09.455Z,8.00
2023-03-05T06:17:37.988Z,9.10
2023-03-05T06:20:13.675Z,8.10
2023-03-05T06:22:42.131Z,8.60
2023-03-05T06:25:10.660Z,7.70
2023-03-05T06:27:40.739Z,7.60
2023-03-05T06:30:11.063Z,8.30
2023-03-05T06:32:39.623Z,8.60
2023-03-05T06:35:09.601Z,9.50
2023-03-05T06:37:39.467Z,8.20
2023-03-05T06:40:09.418Z,8.00
2023-03-05T06:42:38.514Z,7.80
2023-03-05T06:45:08.787Z,8.60
2023-03-05T06:47:37.401Z,8.20
2023-03-05T06:50:06.815Z,8.00
2023-03-05T06:52:35.832Z,6.30
2023-03-05T06:55:05.671Z,5.00
2023-03-05T06:57:36.952Z,5.50
2023-03-05T07:00:11.906Z,6.50
2023-03-05T07:02:41.274Z,6.50
2023-03-05T07:05:10.359Z,6.30
2023-03-05T07:07:41.157Z,5.50
2023-03-05T07:10:11.452Z,6.00
2023-03-05T07:12:44.481Z,6.60
2023-03-05T07:15:12.960Z,4.90
2023-03-05T07:17:41.816Z,6.00
2023-03-05T07:20:11.970Z,5.70
2023-03-05T07:22:40.979Z,6.80
2023-03-05T07:25:09.783Z,5.70
2023-03-05T07:27:39.308Z,5.80
2023-03-05T07:30:08.283Z,6.30
2023-03-05T07:32:38.450Z,6.60
2023-03-05T07:35:08.239Z,5.80
2023-03-05T07:37:36.979Z,7.60
2023-03-05T07:40:06.874Z,7.30
2023-03-05T07:42:40.031Z,6.90
2023-03-05T07:45:12.334Z,5.30
2023-03-05T07:47:40.753Z,6.00
2023-03-05T07:50:10.083Z,5.20
2023-03-05T07:52:38.548Z,6.80
2023-03-05T07:55:08.526Z,6.10
2023-03-05T07:57:39.299Z,7.60
2023-03-05T08:00:09.195Z,6.00
2023-03-05T08:02:40.738Z,6.80
2023-03-05T08:05:09.882Z,5.70
2023-03-05T08:07:38.588Z,6.30
2023-03-05T08:10:08.221Z,4.80
2023-03-05T08:12:41.469Z,4.00
2023-03-05T08:15:10.661Z,5.00
2023-03-05T08:17:39.962Z,4.70
2023-03-05T08:20:11.457Z,4.80
2023-03-05T08:22:40.921Z,8.10
2023-03-05T08:25:10.467Z,8.10
2023-03-05T08:27:40.556Z,7.40
2023-03-05T08:30:12.011Z,7.70
2023-03-05T08:32:41.128Z,5.70
2023-03-05T08:35:10.127Z,6.00
2023-03-05T08:37:46.293Z,4.00
2023-03-05T08:40:15.599Z,4.00
2023-03-05T08:42:44.441Z,4.70
2023-03-05T08:45:14.141Z,3.00
2023-03-05T08:47:43.459Z,4.80
2023-03-05T08:50:12.684Z,3.30
2023-03-05T08:52:43.312Z,2.40
2023-03-05T08:55:13.077Z,1.80
2023-03-05T08:57:44.297Z,1.90
2023-03-05T09:00:14.102Z,2.00
2023-03-05T09:02:42.612Z,1.50
2023-03-05T09:05:11.303Z,2.50
2023-03-05T09:07:39.792Z,2.50
2023-03-05T09:10:11.824Z,3.00
2023-03-05T09:12:43.755Z,3.40
2023-03-05T09:15:14.274Z,3.20
2023-03-05T09:17:45.496Z,2.20
2023-03-05T09:20:14.355Z,3.20
2023-03-05T09:22:44.701Z,2.70
2023-03-05T09:25:13.346Z,3.70
2023-03-05T09:27:41.850Z,2.50
2023-03-05T09:30:11.784Z,3.70
2023-03-05T09:32:41.141Z,3.90
2023-03-05T09:35:10.946Z,3.50
2023-03-05T09:37:39.771Z,3.00
2023-03-05T09:40:11.735Z,3.30
2023-03-05T09:43:08.390Z,3.90
2023-03-05T09:45:40.546Z,2.50
2023-03-05T09:48:45.942Z,2.30
2023-03-05T09:51:26.603Z,2.00
2023-03-05T09:54:20.281Z,3.80
2023-03-05T09:56:50.770Z,3.70
2023-03-05T09:59:22.293Z,4.50
2023-03-05T10:01:50.918Z,2.40
2023-03-05T10:04:29.533Z,2.50
2023-03-05T10:07:03.072Z,2.50
2023-03-05T10:09:43.581Z,2.80
2023-03-05T10:12:42.788Z,1.60
2023-03-05T10:15:16.348Z,2.00
2023-03-05T10:17:49.732Z,1.70
2023-03-05T10:20:33.601Z,2.10
2023-03-05T10:23:08.776Z,3.00
2023-03-05T10:26:01.934Z,2.10
2023-03-05T10:28:49.581Z,2.30
2023-03-05T10:31:43.463Z,2.90
2023-03-05T10:34:32.744Z,1.80
2023-03-05T10:37:14.602Z,1.40
2023-03-05T10:39:56.246Z,1.00
2023-03-05T10:42:49.653Z,1.10
2023-03-05T10:48:26.837Z,1.20
2023-03-05T10:51:01.621Z,1.70
2023-03-05T10:53:35.490Z,1.40
2023-03-05T10:56:10.337Z,1.30
2023-03-05T10:58:40.341Z,1.80
2023-03-05T11:01:12.565Z,2.40
2023-03-05T11:04:03.912Z,2.40
2023-03-05T11:06:33.550Z,1.60
2023-03-05T11:09:33.102Z,1.30
2023-03-05T11:12:08.757Z,1.50
2023-03-05T11:14:40.076Z,1.30
2023-03-05T11:17:51.382Z,1.60
2023-03-05T11:20:29.683Z,0.80
2023-03-05T11:23:21.006Z,0.90
2023-03-05T11:26:03.508Z,0.80
2023-03-05T11:28:52.780Z,1.30
2023-03-05T11:31:26.638Z,1.00
2023-03-05T11:34:04.885Z,1.40
2023-03-05T11:36:35.218Z,1.10
2023-03-05T11:39:06.705Z,1.00
2023-03-05T11:41:39.305Z,1.10
2023-03-05T11:44:16.447Z,0.90
2023-03-05T11:46:48.070Z,1.30
2023-03-05T11:49:20.496Z,1.60
2023-03-05T11:51:55.935Z,1.40
2023-03-05T11:54:28.906Z,1.20
2023-03-05T11:56:57.362Z,1.30
2023-03-05T11:59:32.363Z,2.10
2023-03-05T12:02:00.873Z,1.70
2023-03-05T12:04:29.842Z,1.80
2023-03-05T12:07:00.727Z,1.40
2023-03-05T12:09:52.012Z,2.00
2023-03-05T12:12:26.467Z,1.40
2023-03-05T12:15:17.975Z,1.50
2023-03-05T12:17:54.487Z,1.10
2023-03-05T12:20:42.032Z,1.30
2023-03-05T12:23:15.654Z,2.90
2023-03-05T12:25:57.697Z,1.80
2023-03-05T12:28:36.145Z,1.30
2023-03-05T12:31:25.137Z,1.70
2023-03-05T12:33:53.724Z,1.30
2023-03-05T12:36:22.153Z,1.40
2023-03-05T12:38:53.917Z,1.60
2023-03-05T12:41:22.300Z,1.60
2023-03-05T12:44:07.164Z,1.80
2023-03-05T12:46:39.174Z,1.50
2023-03-05T12:49:20.648Z,1.50
2023-03-05T12:51:54.004Z,1.40
2023-03-05T12:54:32.811Z,1.60
2023-03-05T12:57:23.447Z,1.70
2023-03-05T13:00:09.365Z,2.50
2023-03-05T13:02:44.877Z,1.60
2023-03-05T13:05:30.703Z,1.40
2023-03-05T13:08:24.142Z,1.40
2023-03-05T13:11:01.339Z,1.60
2023-03-05T13:13:41.829Z,1.30
2023-03-05T13:16:37.817Z,1.20
2023-03-05T13:19:16.719Z,1.10
2023-03-05T13:21:45.126Z,1.70
2023-03-05T13:24:17.811Z,1.80
2023-03-05T13:26:48.917Z,1.30
2023-03-05T13:29:19.058Z,1.80
2023-03-05T13:31:59.803Z,1.60
2023-03-05T13:34:40.885Z,1.50
2023-03-05T13:37:24.621Z,1.60
2023-03-05T13:40:07.496Z,1.30
2023-03-05T13:42:37.143Z,1.00
2023-03-05T13:45:08.071Z,1.20
2023-03-05T13:47:37.239Z,1.00
2023-03-05T13:50:07.929Z,1.40
2023-03-05T13:52:38.328Z,1.40
2023-03-05T13:55:13.470Z,1.70
2023-03-05T13:57:43.393Z,1.60
2023-03-05T14:00:29.162Z,1.50
2023-03-05T14:03:23.439Z,1.20
2023-03-05T14:05:53.333Z,1.70
2023-03-05T14:08:24.293Z,2.10
2023-03-05T14:11:13.555Z,2.10
2023-03-05T14:13:42.010Z,1.90
2023-03-05T14:16:15.088Z,1.80
2023-03-05T14:18:57.879Z,1.70
2023-03-05T14:21:26.729Z,2.10
2023-03-05T14:24:31.525Z,1.80
2023-03-05T14:27:09.168Z,1.70
2023-03-05T14:29:37.757Z,2.10
2023-03-05T14:32:20.623Z,2.00
2023-03-05T14:34:51.755Z,2.10
2023-03-05T14:37:42.359Z,1.70
2023-03-05T14:40:14.241Z,2.00
2023-03-05T14:43:05.921Z,2.30
2023-03-05T14:45:40.244Z,2.10
2023-03-05T14:48:08.891Z,1.50
2023-03-05T14:50:52.506Z,1.50
2023-03-05T14:53:29.850Z,1.70
2023-03-05T14:56:01.954Z,1.90
2023-03-05T14:58:33.821Z,2.30
2023-03-05T15:01:02.417Z,2.00
2023-03-05T15:03:31.167Z,2.40
2023-03-05T15:05:59.683Z,2.40
2023-03-05T15:08:30.044Z,2.50
2023-03-05T15:10:59.437Z,2.30
2023-03-05T15:13:28.213Z,3.50
2023-03-05T15:15:56.685Z,3.10
2023-03-05T15:18:27.041Z,3.20
2023-03-05T15:20:57.305Z,3.10
2023-03-05T15:23:25.952Z,3.50
2023-03-05T15:25:54.733Z,3.60
2023-03-05T15:28:23.168Z,3.70
2023-03-05T15:30:53.577Z,4.20
2023-03-05T15:33:23.282Z,4.20
2023-03-05T15:35:51.792Z,4.80
2023-03-05T15:38:20.622Z,4.30
2023-03-05T15:40:50.130Z,4.00
2023-03-05T15:43:19.216Z,4.50
2023-03-05T15:45:48.146Z,5.60
2023-03-05T15:48:23.828Z,5.30
2023-03-05T15:50:53.313Z,6.70
2023-03-05T15:53:22.810Z,6.80
2023-03-05T15:55:51.868Z,5.80
2023-03-05T15:58:21.405Z,5.30
2023-03-05T16:00:49.803Z,4.60
2023-03-05T16:03:19.453Z,5.00
2023-03-05T16:05:47.990Z,5.20
2023-03-05T16:08:16.973Z,4.90
2023-03-05T16:10:45.725Z,3.60
2023-03-05T16:13:20.600Z,5.00
2023-03-05T16:15:53.900Z,5.40
2023-03-05T16:18:23.742Z,5.60
2023-03-05T16:20:55.529Z,7.70
2023-03-05T16:23:24.000Z,8.70
2023-03-05T16:25:53.420Z,10.20
2023-03-05T16:28:23.533Z,9.20
2023-03-05T16:30:55.929Z,10.50
2023-03-05T16:33:25.072Z,8.60
2023-03-05T16:36:21.047Z,7.70
2023-03-05T16:38:58.106Z,6.10
2023-03-05T16:41:26.866Z,12.00
2023-03-05T16:43:56.762Z,16.70
2023-03-05T16:46:26.469Z,17.50
2023-03-05T16:48:55.966Z,18.00
2023-03-05T16:51:31.158Z,16.60
2023-03-05T16:53:59.748Z,15.60
2023-03-05T16:56:28.256Z,10.20
2023-03-05T16:58:56.795Z,13.70
2023-03-05T17:01:25.646Z,12.50
2023-03-05T17:03:58.481Z,13.60
2023-03-05T17:06:28.979Z,12.80
2023-03-05T17:08:58.429Z,11.60
2023-03-05T17:11:27.644Z,11.90
2023-03-05T17:13:58.233Z,11.70
2023-03-05T17:16:27.806Z,11.30
2023-03-05T17:18:59.385Z,15.30
2023-03-05T17:21:27.875Z,16.90
2023-03-05T17:23:56.910Z,21.10
2023-03-05T17:26:27.589Z,20.50
2023-03-05T17:28:57.098Z,23.80
2023-03-05T17:31:25.583Z,68.10
2023-03-05T17:33:55.833Z,59.70
2023-03-05T17:36:24.626Z,36.70
2023-03-05T17:38:54.362Z,22.80
2023-03-05T17:41:23.219Z,21.50
2023-03-05T17:43:57.106Z,21.80
2023-03-05T17:46:25.907Z,15.60
2023-03-05T17:48:54.786Z,11.00
2023-03-05T17:51:23.248Z,9.50
2023-03-05T17:53:51.985Z,7.90
2023-03-05T17:56:24.180Z,8.20
2023-03-05T17:58:53.735Z,6.70
2023-03-05T18:01:30.168Z,5.30
2023-03-05T18:03:58.884Z,5.70
2023-03-05T18:06:27.701Z,4.60
2023-03-05T18:08:59.336Z,5.30
2023-03-05T18:11:30.406Z,5.20
2023-03-05T18:13:59.397Z,4.60
2023-03-05T18:16:28.885Z,4.50
2023-03-05T18:18:57.280Z,4.10
2023-03-05T18:21:28.302Z,3.80
2023-03-05T18:23:57.167Z,4.70
2023-03-05T18:26:25.805Z,4.40
2023-03-05T18:28:54.169Z,4.80
2023-03-05T18:31:22.582Z,4.30
2023-03-05T18:33:51.342Z,4.80
2023-03-05T18:36:20.325Z,4.90
2023-03-05T18:38:49.527Z,4.40
2023-03-05T18:41:20.825Z,5.40
2023-03-05T18:43:50.664Z,5.80
2023-03-05T18:46:20.049Z,5.40
2023-03-05T18:48:49.459Z,5.40
2023-03-05T18:51:21.848Z,5.20
2023-03-05T18:53:52.173Z,5.30
2023-03-05T18:56:21.925Z,5.50
2023-03-05T18:58:51.659Z,5.20
2023-03-05T19:01:20.568Z,5.50
2023-03-05T19:03:50.062Z,6.70
2023-03-05T19:06:18.757Z,6.50
2023-03-05T19:08:56.907Z,6.80
2023-03-05T19:11:25.484Z,6.20
2023-03-05T19:13:53.886Z,6.00
2023-03-05T19:16:29.451Z,6.30
2023-03-05T19:19:24.320Z,5.80
2023-03-05T19:21:55.233Z,6.90
2023-03-05T19:24:24.608Z,6.30
2023-03-05T19:26:56.203Z,6.70
2023-03-05T19:29:25.670Z,5.90
2023-03-05T19:31:54.593Z,6.20
2023-03-05T19:34:23.008Z,6.10
2023-03-05T19:36:51.824Z,5.60
2023-03-05T19:39:25.019Z,6.20
2023-03-05T19:41:53.588Z,4.80
2023-03-05T19:44:22.234Z,5.40
2023-03-05T19:46:50.994Z,6.00
2023-03-05T19:49:19.794Z,5.80
2023-03-05T19:51:49.498Z,6.40
2023-03-05T19:54:19.195Z,5.80
2023-03-05T19:56:47.833Z,6.40
2023-03-05T19:59:18.182Z,8.10
2023-03-05T20:01:46.783Z,7.90
2023-03-05T20:04:17.559Z,7.40
2023-03-05T20:06:46.275Z,8.40
2023-03-05T20:09:20.920Z,8.00
2023-03-05T20:11:51.378Z,7.90
2023-03-05T20:14:19.933Z,8.90
2023-03-05T20:16:49.132Z,22.90
2023-03-05T20:19:18.473Z,24.00
2023-03-05T20:21:46.925Z,14.40
2023-03-05T20:24:19.312Z,8.70
2023-03-05T20:26:48.568Z,9.70
2023-03-05T20:29:18.401Z,11.00
2023-03-05T20:31:48.023Z,14.40
2023-03-05T20:34:17.915Z,26.20
2023-03-05T20:36:47.355Z,20.00
2023-03-05T20:39:15.940Z,11.60
2023-03-05T20:41:45.032Z,8.90
2023-03-05T20:44:16.994Z,8.00
2023-03-05T20:47:32.475Z,7.70
2023-03-05T20:50:10.166Z,7.10
2023-03-05T20:52:40.549Z,7.50
2023-03-05T20:55:09.989Z,7.80
2023-03-05T20:57:39.391Z,7.60
2023-03-05T21:00:08.803Z,6.90
2023-03-05T21:02:37.756Z,6.80
2023-03-05T21:05:07.711Z,7.00
2023-03-05T21:07:36.414Z,7.20
2023-03-05T21:10:06.667Z,7.30
2023-03-05T21:12:35.474Z,7.80
2023-03-05T21:15:04.459Z,7.80
2023-03-05T21:17:32.963Z,6.60
2023-03-05T21:20:01.601Z,8.00
2023-03-05T21:22:31.049Z,7.30
2023-03-05T21:25:29.152Z,9.10
2023-03-05T21:28:03.960Z,8.40
2023-03-05T21:30:43.785Z,8.30
2023-03-05T21:33:15.641Z,8.70
2023-03-05T21:35:44.380Z,7.80
2023-03-05T21:38:14.482Z,7.00
2023-03-05T21:40:45.571Z,7.00
2023-03-05T21:43:16.514Z,6.60
2023-03-05T21:45:47.473Z,5.90
2023-03-05T21:48:16.029Z,5.60
2023-03-05T21:50:45.157Z,6.50
2023-03-05T21:53:14.661Z,6.70
2023-03-05T21:56:15.694Z,6.50
2023-03-05T21:58:46.846Z,6.70
2023-03-05T22:01:16.476Z,6.30
2023-03-05T22:03:45.131Z,5.80
2023-03-05T22:06:14.949Z,5.40
2023-03-05T22:08:43.950Z,5.30
2023-03-05T22:11:15.382Z,5.40
2023-03-05T22:13:44.572Z,5.20
2023-03-05T22:16:23.577Z,5.50
2023-03-05T22:18:53.985Z,5.80
2023-03-05T22:21:25.457Z,5.50
2023-03-05T22:24:01.100Z,5.50
2023-03-05T22:26:35.700Z,6.10
2023-03-05T22:29:04.679Z,6.80
2023-03-05T22:31:33.185Z,6.10
2023-03-05T22:34:01.570Z,5.50
2023-03-05T22:36:30.402Z,5.70
2023-03-05T22:38:58.972Z,5.70
2023-03-05T22:41:31.333Z,4.90
2023-03-05T22:44:00.700Z,4.60
2023-03-05T22:46:29.560Z,4.60
2023-03-05T22:48:58.314Z,5.40
2023-03-05T22:51:26.743Z,5.10
2023-03-05T22:53:56.720Z,5.80
2023-03-05T22:56:25.613Z,5.90
2023-03-05T22:58:55.239Z,5.50
2023-03-05T23:01:25.011Z,5.80
2023-03-05T23:04:43.593Z,4.70
2023-03-05T23:07:12.407Z,5.20
2023-03-05T23:09:40.804Z,5.00
2023-03-05T23:12:10.828Z,4.60
2023-03-05T23:14:39.530Z,4.70
2023-03-05T23:17:09.305Z,4.90
2023-03-05T23:19:39.767Z,4.50
2023-03-05T23:22:09.209Z,4.90
2023-03-05T23:24:39.186Z,5.00
2023-03-05T23:27:08.280Z,5.20
2023-03-05T23:30:21.376Z,5.30
2023-03-05T23:32:57.747Z,5.10
2023-03-05T23:35:30.934Z,5.20
2023-03-05T23:38:00.129Z,4.80
2023-03-05T23:40:30.847Z,5.50
2023-03-05T23:42:59.418Z,4.80
2023-03-05T23:45:29.437Z,5.00
2023-03-05T23:47:58.168Z,4.50
2023-03-05T23:50:32.043Z,4.90
2023-03-05T23:53:02.118Z,4.80
2023-03-05T23:55:40.777Z,5.20
2023-03-05T23:58:13.112Z,5.70
